PAFR METAR and TAF weather

Enter ICAO airport designator
Station Type Date Time Source
PAFR METAR 2021/05/09 23:58 UTC NOAA

PAFR 092358Z AUTO 00000KT 10SM OVC048 13/01 A3008 RMK AO2 SLP193 T01250010 10128 20086 55001 PNO $


Station Type Date Time Source
PAFR Decoded METAR 2021/05/09 23:58 UTC NOAA

Ft. Richardson / Bryant U. S. Army Heliport, Ak, AK, United States (PAFR) 61-16N 149-39W 115M
May 09, 2021 - 07:58 PM EDT / 2021.05.09 2358 UTC
Wind: Calm:0
Visibility: 10 mile(s):0
Sky conditions: overcast
Temperature: 54.5 F (12.5 C)
Dew Point: 33.8 F (1.0 C)
Relative Humidity: 45%
Pressure (altimeter): 30.08 in. Hg (1018 hPa)
Pressure tendency: 0.00 inches (0.1 hPa) lower than three hours ago
ob: PAFR 092358Z AUTO 00000KT 10SM OVC048 13/01 A3008 RMK AO2 SLP193 T01250010 10128 20086 55001 PNO
cycle: 0

Station Type Date Time Source
PAFR TAF UTC NOAA

Error!

Example: see airport list